x

San Clemente Basin - 27nm Se Of San Clemente Is, Ca (46086) Wave Buoy

1:50pm - Thu 23rd Mar 2017 All times are PDT. -7 hours from GMT.

  • Sig Wave height 9.2ft
  • Swell Direction
  • Peak Period 9s
  • Average Period 7s
  • Wind
    20mph, 22mph gusts
  • Sea Temp 60°f
  • Air Temp 57°f
  • Sea Pressure 1021.9mb
  • San Clemente Basin - 27nm Se Of San Clemente Is, Ca
  • San Clemente Basin - 27nm Se Of San Clemente Is, Ca

More Historic Weather Station data

Upgrade to MSW Pro to gain access to the past 30 days of data for over 8000 Wavebouys and Weather Stations around the globe.

Join Pro

Comparision Forecast

View Surf forecast
   
Thu 03/23 1:50pm 9ft 9s 7s 20 22 mph 1021.9mb 60f 57f
12:50pm 9.5ft 10s 7s 20 25 mph 1022mb 60f 57f
11:50am 9.5ft 8s 7s 22 27 mph 1021.7mb 60f 57f
10:50am 9.5ft 8s 7s 22 27 mph 1021.3mb 60f 57f
9:50am 10.5ft 8s 7s 22 27 mph 1020.2mb 59f 57f
8:50am 11ft 8s 7s 22 27 mph 1019.7mb 59f 57f
7:50am 12ft 9s 7s 27 31 mph 1018.8mb 59f 56f
6:50am 11.5ft 8s 7s 27 34 mph 1018.2mb 59f 56f
5:50am 11ft 8s 7s 29 36 mph 1017.7mb 59f 56f
4:50am 11.5ft 8s 7s 29 34 mph 1017.5mb 59f 57f
3:50am 10ft 7s 6s 29 34 mph 1017.5mb 60f 57f
2:50am 10.5ft 7s 6s 31 38 mph 1017.3mb 60f 57f
1:50am 8.5ft 6s 6s 29 34 mph 1017.7mb 60f 57f
12:50am 8ft 12s  -  29 34 mph 1017.3mb 60f 58f
Wed 03/22 11:50pm 6.5ft 13s 6s 25 29 mph 1017.2mb 61f 58f
10:50pm 6ft 14s 6s 25 29 mph 1017.2mb 61f 58f
9:50pm 5ft 16s 6s 22 27 mph 1017.1mb 61f 59f
8:50pm 4.5ft 17s 6s 18 20 mph 1016.9mb 61f 59f
7:50pm 4ft 15s 5s 18 20 mph 1016.6mb 61f 59f
6:50pm 4.5ft 15s 6s 18 20 mph 1016.3mb 61f 59f
5:50pm 4.5ft 16s 6s 18 20 mph 1016.2mb 61f 60f
4:50pm 4.5ft 16s 6s 16 20 mph 1016.3mb 61f 60f
3:50pm 4.5ft 16s 6s 18 20 mph 1016.6mb 61f 59f
2:50pm 4.5ft 14s 5s 18 20 mph 1016.9mb 61f 59f
1:50pm 4.5ft 17s 6s 16 18 mph 1017.1mb 61f 59f
12:50pm 4.5ft 16s 5s 18 20 mph 1018.1mb 61f 59f
11:50am 4ft 16s 5s 18 20 mph 1018.1mb 61f 59f
10:50am 4ft 16s 6s 18 20 mph 1018mb 61f 59f
9:50am 4ft 16s 6s 11 16 mph 1017.8mb 61f 59f
8:50am 4ft 16s 6s 11 13 mph 1017.5mb 61f 58f
7:50am 4ft 16s 6s 11 13 mph 1017mb 61f 59f
6:50am 3.5ft 16s 6s 13 16 mph 1017mb 61f 59f
5:50am 3.5ft 16s 6s 11 13 mph 1016.5mb 61f 59f
4:50am 3.5ft 16s 6s 13 16 mph 1016.2mb 61f 59f
3:50am 3.5ft 16s 7s 11 13 mph 1016.2mb 61f 59f
2:50am 3.5ft 16s 6s 9 13 mph 1016.7mb 61f 59f
1:50am 3.5ft 15s 6s 4 7 mph 1016.9mb 61f 59f
12:50am 3.5ft 17s 6s 7 9 mph 1017.2mb 61f 59f
Tue 03/21 11:50pm 3.5ft 15s 6s 11 13 mph 1017.4mb 61f 60f
10:50pm 3.5ft 15s 6s 9
mph
1017.7mb 61f 60f
9:50pm 3ft 10s 6s 7 9 mph 1017.6mb 61f 60f
8:50pm 3.5ft 15s 6s 9 11 mph 1017.3mb 61f 60f
7:50pm 3ft 11s 6s 9 11 mph 1017.1mb 61f 60f
6:50pm 3ft 15s 6s 11
mph
1017.1mb 61f 59f
5:50pm 3ft 15s 7s 11 13 mph 1017.3mb 61f 61f
4:50pm 2.5ft 15s 6s 11 13 mph 1017.7mb 62f 61f
3:50pm 2.5ft 11s 8s 11 13 mph 1018mb 62f 61f
2:50pm 3ft 15s 8s 9 11 mph 1018.5mb 62f 61f
1:50pm 2.5ft 16s 8s 11
mph
1018.7mb 62f 61f
12:50pm 2.5ft 15s 8s 11
mph
1019.3mb 62f 61f
11:50am 2.5ft 15s 9s 9 11 mph 1019.7mb 62f 61f
10:50am 2.5ft 12s 9s 9
mph
1019.9mb 62f 61f
9:50am 2.5ft 12s 10s 9 11 mph 1019.4mb 62f 61f
8:50am 3ft 16s 10s 9 11 mph 1019.5mb 62f 60f
7:50am 2.5ft 11s 9s 7
mph
1019.3mb 61f 60f
6:50am 3ft 16s 9s 7
mph
1019mb 61f 60f
5:50am 3ft 16s 9s 2 4 mph 1018.8mb 61f 60f
4:50am 2.5ft 11s 9s 4
mph
1018.4mb 61f 59f
3:50am 3ft 11s 8s  -  2 mph 1019.3mb 61f 59f
2:50am 2.5ft 12s 8s 2 4 mph 1019.1mb 61f 59f
1:50am 3ft 16s 8s 2 4 mph 1019.2mb 61f 59f
12:50am 3ft 16s 8s 7
mph
1019.7mb 61f 59f
Mon 03/20 11:50pm 3ft 16s 8s 7 9 mph 1019.8mb 61f 59f
10:50pm 3.5ft 16s 9s 9
mph
1019.9mb 61f 59f
9:50pm 3.5ft 16s 9s 9
mph
1019.6mb 61f 59f
8:50pm 3.5ft 12s 8s 9 11 mph 1019.3mb 61f 60f
7:50pm 3ft 16s 8s 11 13 mph 1018.8mb 61f 60f
6:50pm 3.5ft 13s 9s 11 13 mph 1018.8mb 62f 60f
5:50pm 3.5ft 13s 9s 7 9 mph 1018.5mb 62f 59f
4:50pm 3.5ft 11s 8s 7 9 mph 1018.5mb 64f 60f
3:50pm 3.5ft 16s 9s 4 7 mph 1018.6mb 65f 60f
2:50pm 3.5ft 13s 9s 2 4 mph 1019mb 65f 60f
1:50pm 4ft 11s 9s  -  2 mph 1019.4mb 65f 60f
12:50pm 4ft 16s 10s 2 4 mph 1019.9mb 64f 60f
11:50am 3.5ft 12s 9s 2 4 mph 1020.4mb 63f 60f
10:50am 3.5ft 12s 9s  -  2 mph 1020.5mb 62f 60f
9:50am 3.5ft 13s 8s  -  mph 1020.5mb 62f 60f
8:50am 3.5ft 13s 9s  -  4 mph 1020mb 61f 60f
7:50am 3.5ft 12s 8s  -  2 mph 1019.6mb 61f 60f
6:50am 3.5ft 13s 9s 4
mph
1019.3mb 61f 59f
5:50am 3ft 17s 9s  -  2 mph 1018.6mb 61f 59f
4:50am 3.5ft 13s 9s 2 4 mph 1018.1mb 61f 59f
3:50am 3ft 11s 9s 4 9 mph 1018.3mb 61f 59f
2:50am 3.5ft 13s 9s 4 11 mph 1018.7mb 61f 59f
1:50am 3.5ft 13s 9s 2 4 mph 1018.9mb 61f 59f
12:50am 3.5ft 17s 10s 2 7 mph 1018.6mb 61f 59f
Sun 03/19 11:50pm 3ft 11s 9s  -  2 mph 1019mb 61f 59f
10:50pm 2.5ft 17s 8s  -  2 mph 1019.4mb 61f 59f